sensor_id;sensor_type;location;lat;lon;timestamp;temperature;humidity
21121;DHT22;12519;43.318;21.898;2024-01-15T00:00:09;2.8;99.0
21121;DHT22;12519;43.318;21.898;2024-01-15T00:04:47;2.6;100.0
21121;DHT22;12519;43.318;21.898;2024-01-15T00:09:23;2.6;100.0
21121;DHT22;12519;43.318;21.898;2024-01-15T00:13:59;2.6;100.0
21121;DHT22;12519;43.318;21.898;2024-01-15T00:18:35;2.4;100.0
21121;DHT22;12519;43.318;21.898;2024-01-15T00:23:11;2.4;100.0
21121;DHT22;12519;43.318;21.898;2024-01-15T00:27:47;2.4;100.0
21121;DHT22;12519;43.318;21.898;2024-01-15T00:32:24;2.4;100.0
21121;DHT22;12519;43.318;21.898;2024-01-15T01:09:12;2.2;100.0
21121;DHT22;12519;43.318;21.898;2024-01-15T01:13:49;2.2;100.0
21121;DHT22;12519;43.318;21.898;2024-01-15T01:18:25;2.2;100.0
21121;DHT22;12519;43.318;21.898;2024-01-15T01:23:01;2.2;100.0
21121;DHT22;12519;43.318;21.898;2024-01-15T01:27:38;2.2;100.0
21121;DHT22;12519;43.318;21.898;2024-01-15T01:32:14;2.2;100.0
21121;DHT22;12519;43.318;21.898;2024-01-15T01:36:50;2.1;100.0
21121;DHT22;12519;43.318;21.898;2024-01-15T01:41:27;2.1;100.0
21121;DHT22;12519;43.318;21.898;2024-01-15T01:46:05;2.2;100.0
21121;DHT22;12519;43.318;21.898;2024-01-15T01:50:42;2.2;100.0
21121;DHT22;12519;43.318;21.898;2024-01-15T01:55:24;2.3;100.0
21121;DHT22;12519;43.318;21.898;2024-01-15T02:00:10;2.3;100.0
21121;DHT22;12519;43.318;21.898;2024-01-15T02:04:50;2.3;100.0
21121;DHT22;12519;43.318;21.898;2024-01-15T02:09:26;2.3;100.0
21121;DHT22;12519;43.318;21.898;2024-01-15T02:14:03;2.3;100.0
21121;DHT22;12519;43.318;21.898;2024-01-15T02:18:41;2.4;100.0
21121;DHT22;12519;43.318;21.898;2024-01-15T02:23:19;2.4;100.0
21121;DHT22;12519;43.318;21.898;2024-01-15T02:27:56;2.3;100.0
21121;DHT22;12519;43.318;21.898;2024-01-15T02:32:32;2.3;100.0
21121;DHT22;12519;43.318;21.898;2024-01-15T02:37:08;2.2;100.0
21121;DHT22;12519;43.318;21.898;2024-01-15T02:41:44;2.2;100.0
21121;DHT22;12519;43.318;21.898;2024-01-15T02:46:20;2.3;100.0
21121;DHT22;12519;43.318;21.898;2024-01-15T02:50:56;2.3;100.0
21121;DHT22;12519;43.318;21.898;2024-01-15T02:55:33;2.4;99.0
21121;DHT22;12519;43.318;21.898;2024-01-15T03:00:11;2.4;99.0
21121;DHT22;12519;43.318;21.898;2024-01-15T03:04:49;2.4;99.0
21121;DHT22;12519;43.318;21.898;2024-01-15T03:09:26;2.4;99.0
21121;DHT22;12519;43.318;21.898;2024-01-15T03:14:03;2.4;99.0
21121;DHT22;12519;43.318;21.898;2024-01-15T03:18:39;2.5;99.0
21121;DHT22;12519;43.318;21.898;2024-01-15T03:23:15;2.5;99.0
21121;DHT22;12519;43.318;21.898;2024-01-15T03:27:52;2.6;99.0
21121;DHT22;12519;43.318;21.898;2024-01-15T03:32:28;2.6;99.0
21121;DHT22;12519;43.318;21.898;2024-01-15T03:37:05;2.6;99.0
21121;DHT22;12519;43.318;21.898;2024-01-15T03:41:41;2.6;99.0
21121;DHT22;12519;43.318;21.898;2024-01-15T03:46:18;2.6;99.0
21121;DHT22;12519;43.318;21.898;2024-01-15T03:50:54;2.6;99.0
21121;DHT22;12519;43.318;21.898;2024-01-15T03:55:32;2.6;98.0
21121;DHT22;12519;43.318;21.898;2024-01-15T04:00:10;2.6;98.0
21121;DHT22;12519;43.318;21.898;2024-01-15T04:04:52;2.6;98.0
21121;DHT22;12519;43.318;21.898;2024-01-15T04:09:28;3.8;98.0
21121;DHT22;12519;43.318;21.898;2024-01-15T04:14:04;3.8;98.0
21121;DHT22;12519;43.318;21.898;2024-01-15T04:18:41;5.1;97.0
21121;DHT22;12519;43.318;21.898;2024-01-15T04:23:18;5.1;97.0
21121;DHT22;12519;43.318;21.898;2024-01-15T04:27:54;4.8;94.0
21121;DHT22;12519;43.318;21.898;2024-01-15T04:32:31;4.8;94.0
21121;DHT22;12519;43.318;21.898;2024-01-15T04:37:07;4.4;91.0
21121;DHT22;12519;43.318;21.898;2024-01-15T04:41:43;4.4;91.0
21121;DHT22;12519;43.318;21.898;2024-01-15T04:46:20;3.8;92.0
21121;DHT22;12519;43.318;21.898;2024-01-15T04:50:56;3.8;92.0
21121;DHT22;12519;43.318;21.898;2024-01-15T04:55:32;3.3;93.0
21121;DHT22;12519;43.318;21.898;2024-01-15T05:00:11;3.3;93.0
21121;DHT22;12519;43.318;21.898;2024-01-15T05:04:48;3.3;93.0
21121;DHT22;12519;43.318;21.898;2024-01-15T05:09:24;3.3;93.0
21121;DHT22;12519;43.318;21.898;2024-01-15T05:14:00;3.3;93.0
21121;DHT22;12519;43.318;21.898;2024-01-15T05:18:36;3.3;93.0
21121;DHT22;12519;43.318;21.898;2024-01-15T05:23:12;3.3;93.0
21121;DHT22;12519;43.318;21.898;2024-01-15T05:27:49;3.3;93.0
21121;DHT22;12519;43.318;21.898;2024-01-15T05:32:25;3.3;93.0
21121;DHT22;12519;43.318;21.898;2024-01-15T05:37:01;3.3;94.0
21121;DHT22;12519;43.318;21.898;2024-01-15T05:41:38;3.3;94.0
21121;DHT22;12519;43.318;21.898;2024-01-15T05:46:15;3.4;94.0
21121;DHT22;12519;43.318;21.898;2024-01-15T05:50:52;3.4;94.0
21121;DHT22;12519;43.318;21.898;2024-01-15T05:55:29;3.4;94.0
21121;DHT22;12519;43.318;21.898;2024-01-15T06:00:07;3.4;94.0
21121;DHT22;12519;43.318;21.898;2024-01-15T06:04:47;3.4;94.0
21121;DHT22;12519;43.318;21.898;2024-01-15T06:09:23;3.4;95.0
21121;DHT22;12519;43.318;21.898;2024-01-15T06:14:00;3.4;95.0
21121;DHT22;12519;43.318;21.898;2024-01-15T06:18:36;3.3;95.0
21121;DHT22;12519;43.318;21.898;2024-01-15T06:23:12;3.3;95.0
21121;DHT22;12519;43.318;21.898;2024-01-15T06:27:49;3.4;95.0
21121;DHT22;12519;43.318;21.898;2024-01-15T06:32:25;3.4;95.0
21121;DHT22;12519;43.318;21.898;2024-01-15T06:37:01;3.6;95.0
21121;DHT22;12519;43.318;21.898;2024-01-15T06:41:39;3.6;95.0
21121;DHT22;12519;43.318;21.898;2024-01-15T06:46:20;4.4;96.0
21121;DHT22;12519;43.318;21.898;2024-01-15T06:50:58;4.4;96.0
21121;DHT22;12519;43.318;21.898;2024-01-15T06:55:38;5.1;96.0
21121;DHT22;12519;43.318;21.898;2024-01-15T07:00:17;5.1;96.0
21121;DHT22;12519;43.318;21.898;2024-01-15T07:04:54;5.1;96.0
21121;DHT22;12519;43.318;21.898;2024-01-15T07:09:30;4.6;95.0
21121;DHT22;12519;43.318;21.898;2024-01-15T07:14:07;4.6;95.0
21121;DHT22;12519;43.318;21.898;2024-01-15T07:18:43;4.2;94.0
21121;DHT22;12519;43.318;21.898;2024-01-15T07:23:19;4.2;94.0
21121;DHT22;12519;43.318;21.898;2024-01-15T07:27:56;4.2;94.0
21121;DHT22;12519;43.318;21.898;2024-01-15T07:32:32;4.2;94.0
21121;DHT22;12519;43.318;21.898;2024-01-15T07:37:09;4.1;94.0
21121;DHT22;12519;43.318;21.898;2024-01-15T07:41:45;4.1;94.0
21121;DHT22;12519;43.318;21.898;2024-01-15T07:46:21;4.1;95.0
21121;DHT22;12519;43.318;21.898;2024-01-15T07:50:57;4.1;95.0
21121;DHT22;12519;43.318;21.898;2024-01-15T07:55:33;4.1;95.0
21121;DHT22;12519;43.318;21.898;2024-01-15T08:00:11;4.1;95.0
21121;DHT22;12519;43.318;21.898;2024-01-15T08:04:48;4.1;95.0
21121;DHT22;12519;43.318;21.898;2024-01-15T08:09:24;4.2;95.0
21121;DHT22;12519;43.318;21.898;2024-01-15T08:14:01;4.2;95.0
21121;DHT22;12519;43.318;21.898;2024-01-15T08:18:37;4.3;94.0
21121;DHT22;12519;43.318;21.898;2024-01-15T08:23:14;4.3;94.0
21121;DHT22;12519;43.318;21.898;2024-01-15T08:27:51;4.4;94.0
21121;DHT22;12519;43.318;21.898;2024-01-15T08:32:27;4.4;94.0
21121;DHT22;12519;43.318;21.898;2024-01-15T08:37:04;4.5;94.0
21121;DHT22;12519;43.318;21.898;2024-01-15T08:41:40;4.5;94.0
21121;DHT22;12519;43.318;21.898;2024-01-15T08:46:16;4.6;93.0
21121;DHT22;12519;43.318;21.898;2024-01-15T08:50:53;4.6;93.0
21121;DHT22;12519;43.318;21.898;2024-01-15T08:55:31;4.6;93.0
21121;DHT22;12519;43.318;21.898;2024-01-15T09:00:12;4.8;93.0
21121;DHT22;12519;43.318;21.898;2024-01-15T09:04:50;4.8;93.0
21121;DHT22;12519;43.318;21.898;2024-01-15T09:09:26;5.3;94.0
21121;DHT22;12519;43.318;21.898;2024-01-15T09:14:03;5.3;94.0
21121;DHT22;12519;43.318;21.898;2024-01-15T09:18:39;5.8;94.0
21121;DHT22;12519;43.318;21.898;2024-01-15T09:23:15;5.8;94.0
21121;DHT22;12519;43.318;21.898;2024-01-15T09:27:52;5.8;94.0
21121;DHT22;12519;43.318;21.898;2024-01-15T09:32:28;5.8;94.0
21121;DHT22;12519;43.318;21.898;2024-01-15T09:37:05;5.8;93.0
21121;DHT22;12519;43.318;21.898;2024-01-15T09:41:43;5.8;93.0
21121;DHT22;12519;43.318;21.898;2024-01-15T09:46:20;5.9;94.0
21121;DHT22;12519;43.318;21.898;2024-01-15T09:50:57;5.9;94.0
21121;DHT22;12519;43.318;21.898;2024-01-15T09:55:36;5.9;94.0
21121;DHT22;12519;43.318;21.898;2024-01-15T10:00:14;6.0;94.0
21121;DHT22;12519;43.318;21.898;2024-01-15T10:04:54;6.0;94.0
21121;DHT22;12519;43.318;21.898;2024-01-15T10:09:30;6.0;93.0
21121;DHT22;12519;43.318;21.898;2024-01-15T10:14:08;6.0;93.0
21121;DHT22;12519;43.318;21.898;2024-01-15T10:18:45;6.1;91.0
21121;DHT22;12519;43.318;21.898;2024-01-15T10:23:22;6.1;91.0
21121;DHT22;12519;43.318;21.898;2024-01-15T10:28:01;6.1;91.0
21121;DHT22;12519;43.318;21.898;2024-01-15T10:32:40;6.1;91.0
21121;DHT22;12519;43.318;21.898;2024-01-15T10:37:16;6.1;91.0
21121;DHT22;12519;43.318;21.898;2024-01-15T10:41:52;6.1;91.0
21121;DHT22;12519;43.318;21.898;2024-01-15T10:46:30;6.3;91.0
21121;DHT22;12519;43.318;21.898;2024-01-15T10:51:10;6.3;91.0
21121;DHT22;12519;43.318;21.898;2024-01-15T10:55:50;6.3;91.0
21121;DHT22;12519;43.318;21.898;2024-01-15T11:00:28;6.5;91.0
21121;DHT22;12519;43.318;21.898;2024-01-15T11:05:06;6.5;91.0
21121;DHT22;12519;43.318;21.898;2024-01-15T11:09:42;6.5;91.0
21121;DHT22;12519;43.318;21.898;2024-01-15T11:14:40;6.5;91.0
21121;DHT22;12519;43.318;21.898;2024-01-15T11:29:01;6.9;90.0
21121;DHT22;12519;43.318;21.898;2024-01-15T11:33:50;6.9;90.0
21121;DHT22;12519;43.318;21.898;2024-01-15T11:38:28;6.9;90.0
21121;DHT22;12519;43.318;21.898;2024-01-15T11:43:06;6.9;90.0
21121;DHT22;12519;43.318;21.898;2024-01-15T11:48:16;7.1;90.0
21121;DHT22;12519;43.318;21.898;2024-01-15T11:53:03;7.1;90.0
21121;DHT22;12519;43.318;21.898;2024-01-15T11:57:54;7.3;91.0
21121;DHT22;12519;43.318;21.898;2024-01-15T12:02:34;7.3;91.0
21121;DHT22;12519;43.318;21.898;2024-01-15T12:07:11;7.4;91.0
21121;DHT22;12519;43.318;21.898;2024-01-15T12:12:14;7.4;91.0
21121;DHT22;12519;43.318;21.898;2024-01-15T12:17:00;7.4;90.0
21121;DHT22;12519;43.318;21.898;2024-01-15T12:21:39;7.4;90.0
21121;DHT22;12519;43.318;21.898;2024-01-15T12:26:16;7.4;90.0
21121;DHT22;12519;43.318;21.898;2024-01-15T12:30:55;7.5;90.0
21121;DHT22;12519;43.318;21.898;2024-01-15T12:35:35;7.5;90.0
21121;DHT22;12519;43.318;21.898;2024-01-15T12:40:20;7.6;90.0
21121;DHT22;12519;43.318;21.898;2024-01-15T12:45:01;7.6;90.0
21121;DHT22;12519;43.318;21.898;2024-01-15T12:49:38;7.8;90.0
21121;DHT22;12519;43.318;21.898;2024-01-15T12:54:15;7.8;90.0
21121;DHT22;12519;43.318;21.898;2024-01-15T12:58:51;7.9;90.0
21121;DHT22;12519;43.318;21.898;2024-01-15T13:03:28;7.9;90.0
21121;DHT22;12519;43.318;21.898;2024-01-15T13:08:05;7.9;90.0
21121;DHT22;12519;43.318;21.898;2024-01-15T13:12:41;7.9;90.0
21121;DHT22;12519;43.318;21.898;2024-01-15T13:26:31;8.1;92.0
21121;DHT22;12519;43.318;21.898;2024-01-15T13:31:07;8.1;92.0
21121;DHT22;12519;43.318;21.898;2024-01-15T13:35:43;8.1;92.0
21121;DHT22;12519;43.318;21.898;2024-01-15T13:40:20;8.1;92.0
21121;DHT22;12519;43.318;21.898;2024-01-15T13:44:56;8.1;92.0
21121;DHT22;12519;43.318;21.898;2024-01-15T13:49:32;8.4;94.0
21121;DHT22;12519;43.318;21.898;2024-01-15T13:54:09;8.4;94.0
21121;DHT22;12519;43.318;21.898;2024-01-15T13:58:45;8.6;96.0
21121;DHT22;12519;43.318;21.898;2024-01-15T14:03:21;8.6;96.0
21121;DHT22;12519;43.318;21.898;2024-01-15T14:07:58;10.2;93.0
21121;DHT22;12519;43.318;21.898;2024-01-15T14:12:34;10.2;93.0
21121;DHT22;12519;43.318;21.898;2024-01-15T14:17:11;11.9;91.0
21121;DHT22;12519;43.318;21.898;2024-01-15T14:21:47;11.9;91.0
21121;DHT22;12519;43.318;21.898;2024-01-15T14:26:23;11.9;91.0
21121;DHT22;12519;43.318;21.898;2024-01-15T14:30:59;10.4;94.0
21121;DHT22;12519;43.318;21.898;2024-01-15T14:35:35;10.4;94.0
21121;DHT22;12519;43.318;21.898;2024-01-15T14:40:12;8.9;98.0
21121;DHT22;12519;43.318;21.898;2024-01-15T14:44:48;8.9;98.0
21121;DHT22;12519;43.318;21.898;2024-01-15T14:49:25;8.4;99.0
21121;DHT22;12519;43.318;21.898;2024-01-15T14:54:01;8.4;99.0
21121;DHT22;12519;43.318;21.898;2024-01-15T14:58:38;8.0;100.0
21121;DHT22;12519;43.318;21.898;2024-01-15T15:03:14;8.0;100.0
21121;DHT22;12519;43.318;21.898;2024-01-15T15:07:51;8.0;100.0
21121;DHT22;12519;43.318;21.898;2024-01-15T15:12:27;8.0;100.0
21121;DHT22;12519;43.318;21.898;2024-01-15T15:17:05;7.9;100.0
21121;DHT22;12519;43.318;21.898;2024-01-15T15:21:41;7.9;100.0
21121;DHT22;12519;43.318;21.898;2024-01-15T15:26:17;7.9;100.0
21121;DHT22;12519;43.318;21.898;2024-01-15T15:30:54;7.8;100.0
21121;DHT22;12519;43.318;21.898;2024-01-15T15:35:30;7.8;100.0
21121;DHT22;12519;43.318;21.898;2024-01-15T15:40:10;7.8;100.0
21121;DHT22;12519;43.318;21.898;2024-01-15T15:44:46;7.8;100.0
21121;DHT22;12519;43.318;21.898;2024-01-15T15:49:22;7.8;100.0
21121;DHT22;12519;43.318;21.898;2024-01-15T15:53:58;7.8;100.0
21121;DHT22;12519;43.318;21.898;2024-01-15T15:58:35;7.7;100.0
21121;DHT22;12519;43.318;21.898;2024-01-15T16:03:11;7.7;100.0
21121;DHT22;12519;43.318;21.898;2024-01-15T16:07:48;7.6;100.0
21121;DHT22;12519;43.318;21.898;2024-01-15T16:12:24;7.6;100.0
21121;DHT22;12519;43.318;21.898;2024-01-15T16:17:01;7.5;100.0
21121;DHT22;12519;43.318;21.898;2024-01-15T16:21:38;7.5;100.0
21121;DHT22;12519;43.318;21.898;2024-01-15T16:26:15;7.5;100.0
21121;DHT22;12519;43.318;21.898;2024-01-15T16:30:51;7.6;100.0
21121;DHT22;12519;43.318;21.898;2024-01-15T16:35:28;7.6;100.0
21121;DHT22;12519;43.318;21.898;2024-01-15T16:40:08;7.7;100.0
21121;DHT22;12519;43.318;21.898;2024-01-15T16:44:46;7.7;100.0
21121;DHT22;12519;43.318;21.898;2024-01-15T16:49:22;8.0;100.0
21121;DHT22;12519;43.318;21.898;2024-01-15T16:53:59;8.0;100.0
21121;DHT22;12519;43.318;21.898;2024-01-15T16:58:35;8.3;100.0
21121;DHT22;12519;43.318;21.898;2024-01-15T17:03:11;8.3;100.0
21121;DHT22;12519;43.318;21.898;2024-01-15T17:07:48;8.2;100.0
21121;DHT22;12519;43.318;21.898;2024-01-15T17:12:24;8.2;100.0
21121;DHT22;12519;43.318;21.898;2024-01-15T17:17:01;8.2;100.0
21121;DHT22;12519;43.318;21.898;2024-01-15T17:21:37;8.2;100.0
21121;DHT22;12519;43.318;21.898;2024-01-15T17:26:13;8.2;100.0
21121;DHT22;12519;43.318;21.898;2024-01-15T17:30:50;8.0;100.0
21121;DHT22;12519;43.318;21.898;2024-01-15T17:35:27;8.0;100.0
21121;DHT22;12519;43.318;21.898;2024-01-15T17:40:07;7.8;100.0
21121;DHT22;12519;43.318;21.898;2024-01-15T17:44:45;7.8;100.0
21121;DHT22;12519;43.318;21.898;2024-01-15T17:49:22;7.5;100.0
21121;DHT22;12519;43.318;21.898;2024-01-15T17:53:59;7.5;100.0
21121;DHT22;12519;43.318;21.898;2024-01-15T17:58:36;7.2;100.0
21121;DHT22;12519;43.318;21.898;2024-01-15T18:03:13;7.2;100.0
21121;DHT22;12519;43.318;21.898;2024-01-15T18:07:49;7.2;100.0
21121;DHT22;12519;43.318;21.898;2024-01-15T18:12:25;7.2;100.0
21121;DHT22;12519;43.318;21.898;2024-01-15T18:17:03;7.2;100.0
21121;DHT22;12519;43.318;21.898;2024-01-15T18:21:39;7.2;100.0
21121;DHT22;12519;43.318;21.898;2024-01-15T18:26:16;7.2;100.0
21121;DHT22;12519;43.318;21.898;2024-01-15T18:30:52;7.2;100.0
21121;DHT22;12519;43.318;21.898;2024-01-15T18:35:28;7.2;100.0
21121;DHT22;12519;43.318;21.898;2024-01-15T18:40:08;7.2;100.0
21121;DHT22;12519;43.318;21.898;2024-01-15T18:44:45;7.2;100.0
21121;DHT22;12519;43.318;21.898;2024-01-15T18:49:21;7.3;100.0
21121;DHT22;12519;43.318;21.898;2024-01-15T18:53:57;7.3;100.0
21121;DHT22;12519;43.318;21.898;2024-01-15T18:58:34;7.4;100.0
21121;DHT22;12519;43.318;21.898;2024-01-15T19:03:10;7.4;100.0
21121;DHT22;12519;43.318;21.898;2024-01-15T19:07:46;7.5;100.0
21121;DHT22;12519;43.318;21.898;2024-01-15T19:12:23;7.5;100.0
21121;DHT22;12519;43.318;21.898;2024-01-15T19:17:02;7.5;100.0
21121;DHT22;12519;43.318;21.898;2024-01-15T19:21:39;7.6;100.0
21121;DHT22;12519;43.318;21.898;2024-01-15T19:26:17;7.6;100.0
21121;DHT22;12519;43.318;21.898;2024-01-15T19:30:55;7.6;100.0
21121;DHT22;12519;43.318;21.898;2024-01-15T19:35:31;7.6;100.0
21121;DHT22;12519;43.318;21.898;2024-01-15T19:40:10;7.5;100.0
21121;DHT22;12519;43.318;21.898;2024-01-15T19:44:47;7.5;100.0
21121;DHT22;12519;43.318;21.898;2024-01-15T19:49:23;7.5;100.0
21121;DHT22;12519;43.318;21.898;2024-01-15T19:54:00;7.5;100.0
21121;DHT22;12519;43.318;21.898;2024-01-15T19:58:36;7.5;100.0
21121;DHT22;12519;43.318;21.898;2024-01-15T20:03:13;7.5;100.0
21121;DHT22;12519;43.318;21.898;2024-01-15T20:07:50;7.5;100.0
21121;DHT22;12519;43.318;21.898;2024-01-15T20:12:26;7.5;100.0
21121;DHT22;12519;43.318;21.898;2024-01-15T20:17:03;7.5;100.0
21121;DHT22;12519;43.318;21.898;2024-01-15T20:21:39;7.5;100.0
21121;DHT22;12519;43.318;21.898;2024-01-15T20:26:16;7.5;100.0
21121;DHT22;12519;43.318;21.898;2024-01-15T20:30:52;7.5;100.0
21121;DHT22;12519;43.318;21.898;2024-01-15T20:35:29;7.5;100.0
21121;DHT22;12519;43.318;21.898;2024-01-15T20:40:08;7.5;100.0
21121;DHT22;12519;43.318;21.898;2024-01-15T20:44:46;7.5;100.0
21121;DHT22;12519;43.318;21.898;2024-01-15T20:49:22;7.5;100.0
21121;DHT22;12519;43.318;21.898;2024-01-15T20:53:58;7.5;100.0
21121;DHT22;12519;43.318;21.898;2024-01-15T20:58:35;7.5;100.0
21121;DHT22;12519;43.318;21.898;2024-01-15T21:03:11;7.5;100.0
21121;DHT22;12519;43.318;21.898;2024-01-15T21:07:51;7.4;100.0
21121;DHT22;12519;43.318;21.898;2024-01-15T21:12:27;7.4;100.0
21121;DHT22;12519;43.318;21.898;2024-01-15T21:17:03;7.4;100.0
21121;DHT22;12519;43.318;21.898;2024-01-15T21:21:40;7.4;100.0
21121;DHT22;12519;43.318;21.898;2024-01-15T21:26:16;7.4;100.0
21121;DHT22;12519;43.318;21.898;2024-01-15T21:30:52;7.7;99.0
21121;DHT22;12519;43.318;21.898;2024-01-15T21:35:28;7.7;99.0
21121;DHT22;12519;43.318;21.898;2024-01-15T21:40:06;8.0;98.0
21121;DHT22;12519;43.318;21.898;2024-01-15T21:44:44;8.0;98.0
21121;DHT22;12519;43.318;21.898;2024-01-15T21:49:21;8.2;97.0
21121;DHT22;12519;43.318;21.898;2024-01-15T21:53:58;8.2;97.0
21121;DHT22;12519;43.318;21.898;2024-01-15T21:58:36;8.3;96.0
21121;DHT22;12519;43.318;21.898;2024-01-15T22:03:13;8.3;96.0
21121;DHT22;12519;43.318;21.898;2024-01-15T22:07:49;8.4;96.0
21121;DHT22;12519;43.318;21.898;2024-01-15T22:12:25;8.4;96.0
21121;DHT22;12519;43.318;21.898;2024-01-15T22:17:02;8.4;96.0
21121;DHT22;12519;43.318;21.898;2024-01-15T22:21:42;8.4;96.0
21121;DHT22;12519;43.318;21.898;2024-01-15T22:26:18;8.4;96.0
21121;DHT22;12519;43.318;21.898;2024-01-15T22:30:54;8.4;97.0
21121;DHT22;12519;43.318;21.898;2024-01-15T22:35:31;8.4;97.0
21121;DHT22;12519;43.318;21.898;2024-01-15T22:40:09;8.5;97.0
21121;DHT22;12519;43.318;21.898;2024-01-15T22:44:46;8.5;97.0
21121;DHT22;12519;43.318;21.898;2024-01-15T22:49:22;8.6;97.0
21121;DHT22;12519;43.318;21.898;2024-01-15T22:53:59;8.6;97.0
21121;DHT22;12519;43.318;21.898;2024-01-15T22:58:35;8.6;96.0
21121;DHT22;12519;43.318;21.898;2024-01-15T23:03:12;8.6;96.0
21121;DHT22;12519;43.318;21.898;2024-01-15T23:07:49;8.6;96.0
21121;DHT22;12519;43.318;21.898;2024-01-15T23:12:25;8.6;96.0
21121;DHT22;12519;43.318;21.898;2024-01-15T23:17:03;8.6;96.0
21121;DHT22;12519;43.318;21.898;2024-01-15T23:21:41;8.7;96.0
21121;DHT22;12519;43.318;21.898;2024-01-15T23:26:19;8.7;96.0
21121;DHT22;12519;43.318;21.898;2024-01-15T23:30:56;8.8;96.0
21121;DHT22;12519;43.318;21.898;2024-01-15T23:35:32;8.8;96.0
21121;DHT22;12519;43.318;21.898;2024-01-15T23:40:10;8.8;97.0
21121;DHT22;12519;43.318;21.898;2024-01-15T23:44:47;8.8;97.0
21121;DHT22;12519;43.318;21.898;2024-01-15T23:49:23;8.7;97.0
21121;DHT22;12519;43.318;21.898;2024-01-15T23:53:59;8.7;97.0
21121;DHT22;12519;43.318;21.898;2024-01-15T23:58:35;8.6;98.0
